createdAt,value
2022-12-03T00:02:21.500Z,55.71
2022-12-03T00:04:48.238Z,55.38
2022-12-03T00:07:14.952Z,57.27
2022-12-03T00:09:41.592Z,55.21
2022-12-03T00:12:08.752Z,54.44
2022-12-03T00:14:37.810Z,56.02
2022-12-03T00:17:08.067Z,54.75
2022-12-03T00:19:34.909Z,53.95
2022-12-03T00:22:01.670Z,53.09
2022-12-03T00:24:28.304Z,53.48
2022-12-03T00:26:55.152Z,53.97
2022-12-03T00:29:21.842Z,53.29
2022-12-03T00:31:48.537Z,52.72
2022-12-03T00:34:15.223Z,52.36
2022-12-03T00:36:41.903Z,54.06
2022-12-03T00:39:08.540Z,53.21
2022-12-03T00:41:36.145Z,53.60
2022-12-03T00:44:03.367Z,53.49
2022-12-03T00:46:30.100Z,51.43
2022-12-03T00:48:56.787Z,53.18
2022-12-03T00:51:23.604Z,54.52
2022-12-03T00:53:50.325Z,53.08
2022-12-03T00:56:17.091Z,53.01
2022-12-03T00:58:43.791Z,51.82
2022-12-03T01:01:10.509Z,50.90
2022-12-03T01:03:37.836Z,50.64
2022-12-03T01:06:04.697Z,54.24
2022-12-03T01:08:31.368Z,53.48
2022-12-03T01:10:58.010Z,51.61
2022-12-03T01:13:24.685Z,52.38
2022-12-03T01:15:51.479Z,51.28
2022-12-03T01:18:18.164Z,51.32
2022-12-03T01:20:44.945Z,51.54
2022-12-03T01:23:13.045Z,51.18
2022-12-03T01:25:39.740Z,50.77
2022-12-03T01:28:06.383Z,50.84
2022-12-03T01:30:53.439Z,52.75
2022-12-03T01:33:20.230Z,52.79
2022-12-03T01:35:46.851Z,53.24
2022-12-03T01:38:14.172Z,55.66
2022-12-03T01:40:41.045Z,54.65
2022-12-03T01:43:07.721Z,52.72
2022-12-03T01:45:34.356Z,54.13
2022-12-03T01:48:01.175Z,54.39
2022-12-03T01:50:33.065Z,53.97
2022-12-03T01:53:03.061Z,55.39
2022-12-03T01:55:30.440Z,54.35
2022-12-03T01:58:00.735Z,54.39
2022-12-03T02:00:29.819Z,53.90
2022-12-03T02:03:12.230Z,52.60
2022-12-03T02:05:39.085Z,52.86
2022-12-03T02:08:32.229Z,53.62
2022-12-03T02:11:06.499Z,53.62
2022-12-03T02:13:33.415Z,53.52
2022-12-03T02:16:00.152Z,51.16
2022-12-03T02:18:27.008Z,52.29
2022-12-03T02:21:10.207Z,53.56
2022-12-03T02:24:12.688Z,53.25
2022-12-03T02:26:39.446Z,52.58
2022-12-03T02:29:06.128Z,52.79
2022-12-03T02:31:33.165Z,52.54
2022-12-03T02:33:59.882Z,54.63
2022-12-03T02:36:27.067Z,54.89
2022-12-03T02:38:53.822Z,52.59
2022-12-03T02:41:40.089Z,51.95
2022-12-03T02:44:08.194Z,52.21
2022-12-03T02:46:35.776Z,51.39
2022-12-03T02:49:05.184Z,53.70
2022-12-03T02:51:33.600Z,51.61
2022-12-03T02:54:00.808Z,51.44
2022-12-03T02:56:31.095Z,52.52
2022-12-03T02:59:02.999Z,51.61
2022-12-03T03:01:29.918Z,52.12
2022-12-03T03:03:57.488Z,53.18
2022-12-03T03:06:24.765Z,52.56
2022-12-03T03:08:52.234Z,52.34
2022-12-03T03:11:18.975Z,51.46
2022-12-03T03:13:46.272Z,49.34
2022-12-03T03:16:13.063Z,50.92
2022-12-03T03:18:40.037Z,50.93
2022-12-03T03:21:06.930Z,50.27
2022-12-03T03:23:33.747Z,50.48
2022-12-03T03:26:06.000Z,51.76
2022-12-03T03:28:37.500Z,52.79
2022-12-03T03:31:07.018Z,52.59
2022-12-03T03:33:34.990Z,55.26
2022-12-03T03:36:02.260Z,56.28
2022-12-03T03:38:30.236Z,53.46
2022-12-03T03:41:00.118Z,53.93
2022-12-03T03:43:27.980Z,52.49
2022-12-03T03:45:55.535Z,51.29
2022-12-03T03:48:22.867Z,49.91
2022-12-03T03:50:50.882Z,49.29
2022-12-03T03:53:19.164Z,51.69
2022-12-03T03:55:46.186Z,50.18
2022-12-03T03:58:13.901Z,50.85
2022-12-03T04:00:44.541Z,50.90
2022-12-03T04:03:11.583Z,49.94
2022-12-03T04:05:38.832Z,49.22
2022-12-03T04:08:05.698Z,50.96
2022-12-03T04:10:50.947Z,51.37
2022-12-03T04:13:17.705Z,54.18
2022-12-03T04:15:44.349Z,53.36
2022-12-03T04:18:29.588Z,53.25
2022-12-03T04:21:16.204Z,53.04
2022-12-03T04:23:42.949Z,52.26
2022-12-03T04:26:28.328Z,51.19
2022-12-03T04:28:55.357Z,49.52
2022-12-03T04:31:40.621Z,50.75
2022-12-03T04:34:27.106Z,51.78
2022-12-03T04:36:55.216Z,50.54
2022-12-03T04:39:21.926Z,51.57
2022-12-03T04:41:48.617Z,51.84
2022-12-03T04:44:33.119Z,50.36
2022-12-03T04:47:01.031Z,49.22
2022-12-03T04:49:27.843Z,47.72
2022-12-03T04:51:54.534Z,49.77
2022-12-03T04:54:21.508Z,51.19
2022-12-03T04:56:48.291Z,49.92
2022-12-03T04:59:16.419Z,50.14
2022-12-03T05:01:44.383Z,50.71
2022-12-03T05:04:12.752Z,51.93
2022-12-03T05:06:39.784Z,51.46
2022-12-03T05:09:06.619Z,51.59
2022-12-03T05:11:33.605Z,52.32
2022-12-03T05:14:00.256Z,54.34
2022-12-03T05:16:28.770Z,52.02
2022-12-03T05:18:55.436Z,51.07
2022-12-03T05:21:22.192Z,52.12
2022-12-03T05:23:49.459Z,49.53
2022-12-03T05:26:16.371Z,48.39
2022-12-03T05:28:43.000Z,47.61
2022-12-03T05:31:09.959Z,49.22
2022-12-03T05:33:42.452Z,49.50
2022-12-03T05:36:10.846Z,49.13
2022-12-03T05:38:37.608Z,49.12
2022-12-03T05:41:25.146Z,48.91
2022-12-03T05:43:51.880Z,49.08
2022-12-03T05:46:18.846Z,50.79
2022-12-03T05:48:45.953Z,50.15
2022-12-03T05:51:12.683Z,48.17
2022-12-03T05:53:39.375Z,49.82
2022-12-03T05:56:06.462Z,49.40
2022-12-03T05:58:33.259Z,51.16
2022-12-03T06:00:59.920Z,52.49
2022-12-03T06:03:27.188Z,51.31
2022-12-03T06:05:53.968Z,50.50
2022-12-03T06:08:20.662Z,50.43
2022-12-03T06:10:47.411Z,49.57
2022-12-03T06:13:14.108Z,51.60
2022-12-03T06:15:43.901Z,52.03
2022-12-03T06:18:11.767Z,50.50
2022-12-03T06:20:38.467Z,50.06
2022-12-03T06:23:05.355Z,50.42
2022-12-03T06:25:32.017Z,50.92
2022-12-03T06:27:58.676Z,51.54
2022-12-03T06:30:25.279Z,51.32
2022-12-03T06:32:52.805Z,52.11
2022-12-03T06:35:19.535Z,51.15
2022-12-03T06:37:49.053Z,50.10
2022-12-03T06:40:16.721Z,51.89
2022-12-03T06:42:43.805Z,51.75
2022-12-03T06:45:12.005Z,53.71
2022-12-03T06:47:38.687Z,52.56
2022-12-03T06:50:07.372Z,52.32
2022-12-03T06:52:34.951Z,51.13
2022-12-03T06:55:01.693Z,51.65
2022-12-03T06:57:28.496Z,49.93
2022-12-03T06:59:55.607Z,50.20
2022-12-03T07:02:22.556Z,51.67
2022-12-03T07:04:49.239Z,52.59
2022-12-03T07:07:15.962Z,52.88
2022-12-03T07:09:43.279Z,54.09
2022-12-03T07:12:10.043Z,52.92
2022-12-03T07:14:37.132Z,51.02
2022-12-03T07:17:03.803Z,50.43
2022-12-03T07:19:32.862Z,51.33
2022-12-03T07:22:00.345Z,51.33
2022-12-03T07:24:27.567Z,50.84
2022-12-03T07:26:54.553Z,50.02
2022-12-03T07:29:21.369Z,49.99
2022-12-03T07:31:48.321Z,50.55
2022-12-03T07:34:15.084Z,50.33
2022-12-03T07:36:41.869Z,52.17
2022-12-03T07:39:08.573Z,51.95
2022-12-03T07:41:35.215Z,51.49
2022-12-03T07:44:01.878Z,52.49
2022-12-03T07:46:28.727Z,51.23
2022-12-03T07:48:55.408Z,51.78
2022-12-03T07:51:24.183Z,50.09
2022-12-03T07:53:52.868Z,49.84
2022-12-03T07:56:19.491Z,50.88
2022-12-03T07:58:46.202Z,51.51
2022-12-03T08:01:13.206Z,52.12
2022-12-03T08:03:40.143Z,53.24
2022-12-03T08:06:06.967Z,52.74
2022-12-03T08:08:33.652Z,52.69
2022-12-03T08:11:02.127Z,52.66
2022-12-03T08:13:28.855Z,52.13
2022-12-03T08:16:00.201Z,52.10
2022-12-03T08:18:28.812Z,51.00
2022-12-03T08:20:55.477Z,50.59
2022-12-03T08:23:25.635Z,49.66
2022-12-03T08:25:53.364Z,50.37
2022-12-03T08:28:26.697Z,50.57
2022-12-03T08:31:12.632Z,51.77
2022-12-03T08:33:41.773Z,52.13
2022-12-03T08:36:31.189Z,52.76
2022-12-03T08:39:18.546Z,50.78
2022-12-03T08:42:05.956Z,49.81
2022-12-03T08:44:40.869Z,49.73
2022-12-03T08:47:19.525Z,52.58
2022-12-03T08:50:01.277Z,53.02
2022-12-03T08:52:34.134Z,52.77
2022-12-03T08:55:27.944Z,52.65
2022-12-03T08:57:58.610Z,52.76
2022-12-03T09:00:25.582Z,50.85
2022-12-03T09:02:59.395Z,51.66
2022-12-03T09:05:32.272Z,51.26
2022-12-03T09:07:59.475Z,52.22
2022-12-03T09:10:26.173Z,50.50
2022-12-03T09:12:53.195Z,52.52
2022-12-03T09:15:20.030Z,53.14
2022-12-03T09:17:49.977Z,53.26
2022-12-03T09:20:16.795Z,51.96
2022-12-03T09:22:43.591Z,52.15
2022-12-03T09:25:10.409Z,53.19
2022-12-03T09:27:37.050Z,52.05
2022-12-03T09:30:05.385Z,50.59
2022-12-03T09:32:32.191Z,51.79
2022-12-03T09:34:58.974Z,51.47
2022-12-03T09:37:25.753Z,54.42
2022-12-03T09:39:52.428Z,54.25
2022-12-03T09:42:19.214Z,54.88
2022-12-03T09:44:46.083Z,51.56
2022-12-03T09:47:12.835Z,51.26
2022-12-03T09:49:40.834Z,51.74
2022-12-03T09:52:08.083Z,50.81
2022-12-03T09:54:35.322Z,50.17
2022-12-03T09:57:04.086Z,50.33
2022-12-03T09:59:34.282Z,49.65
2022-12-03T10:02:02.742Z,50.12
2022-12-03T10:04:30.238Z,49.07
2022-12-03T10:06:58.798Z,50.74
2022-12-03T10:09:30.288Z,49.72
2022-12-03T10:11:58.980Z,49.56
2022-12-03T10:14:26.421Z,49.12
2022-12-03T10:16:53.197Z,48.95
2022-12-03T10:19:29.284Z,49.54
2022-12-03T10:21:56.013Z,50.12
2022-12-03T10:24:32.517Z,50.92
2022-12-03T10:27:21.622Z,50.99
2022-12-03T10:30:00.937Z,52.62
2022-12-03T10:32:39.740Z,52.80
2022-12-03T10:35:14.203Z,53.02
2022-12-03T10:38:02.484Z,53.15
2022-12-03T10:40:35.689Z,53.75
2022-12-03T10:43:25.508Z,56.47
2022-12-03T10:46:12.714Z,55.29
2022-12-03T10:48:39.474Z,53.62
2022-12-03T10:51:21.007Z,55.46
2022-12-03T10:53:49.668Z,55.42
2022-12-03T10:56:26.117Z,53.14
2022-12-03T10:58:53.160Z,52.00
2022-12-03T11:01:23.553Z,51.11
2022-12-03T11:03:51.269Z,51.55
2022-12-03T11:06:21.052Z,51.41
2022-12-03T11:08:58.523Z,50.35
2022-12-03T11:11:31.071Z,51.03
2022-12-03T11:14:02.737Z,50.59
2022-12-03T11:16:41.776Z,51.15
2022-12-03T11:19:47.105Z,50.73
2022-12-03T11:22:13.961Z,51.82
2022-12-03T11:24:40.885Z,50.55
2022-12-03T11:27:18.688Z,49.45
2022-12-03T11:29:59.064Z,50.07
2022-12-03T11:32:37.719Z,49.57
2022-12-03T11:35:34.898Z,50.84
2022-12-03T11:38:40.788Z,50.14
2022-12-03T11:41:19.682Z,50.97
2022-12-03T11:43:52.468Z,52.83
2022-12-03T11:46:21.470Z,51.38
2022-12-03T11:48:53.084Z,52.06
2022-12-03T11:51:24.637Z,50.94
2022-12-03T11:53:53.923Z,50.23
2022-12-03T11:56:24.929Z,49.79
2022-12-03T11:59:03.734Z,50.24
2022-12-03T12:01:40.070Z,51.51
2022-12-03T12:04:31.220Z,50.71
2022-12-03T12:06:58.138Z,50.89
2022-12-03T12:09:55.156Z,49.81
2022-12-03T12:12:45.617Z,51.20
2022-12-03T12:15:43.020Z,49.00
2022-12-03T12:18:45.604Z,50.28
2022-12-03T12:21:47.660Z,49.13
2022-12-03T12:24:45.666Z,47.77
2022-12-03T12:27:45.001Z,48.38
2022-12-03T12:30:20.513Z,50.58
2022-12-03T12:32:53.383Z,51.20
2022-12-03T12:35:27.313Z,50.35
2022-12-03T12:38:17.134Z,50.62
2022-12-03T12:40:49.227Z,50.03
2022-12-03T12:43:25.047Z,47.96
2022-12-03T12:45:57.019Z,49.66
2022-12-03T12:48:34.357Z,49.22
2022-12-03T12:51:18.708Z,49.14
2022-12-03T12:53:45.872Z,50.33
2022-12-03T12:56:29.962Z,50.88
2022-12-03T12:59:06.413Z,50.56
2022-12-03T13:01:35.484Z,51.09
2022-12-03T13:04:10.254Z,49.86
2022-12-03T13:06:37.097Z,51.59
2022-12-03T13:09:03.877Z,51.63
2022-12-03T13:11:44.106Z,52.01
2022-12-03T13:14:23.798Z,51.82
2022-12-03T13:16:54.610Z,51.84
2022-12-03T13:19:30.349Z,50.98
2022-12-03T13:22:01.891Z,51.24
2022-12-03T13:24:38.137Z,49.72
2022-12-03T13:27:14.008Z,51.45
2022-12-03T13:29:40.652Z,50.04
2022-12-03T13:32:33.169Z,49.22
2022-12-03T13:35:31.356Z,50.63
2022-12-03T13:37:59.156Z,51.45
2022-12-03T13:40:31.346Z,53.17
2022-12-03T13:42:59.357Z,51.83
2022-12-03T13:45:31.896Z,51.24
2022-12-03T13:48:02.764Z,50.55
2022-12-03T13:50:46.114Z,50.85
2022-12-03T13:53:27.853Z,50.68
2022-12-03T13:56:14.555Z,50.49
2022-12-03T13:58:41.381Z,49.42
2022-12-03T14:01:08.039Z,48.52
2022-12-03T14:03:35.350Z,48.79
2022-12-03T14:06:02.062Z,50.26
2022-12-03T14:08:29.847Z,50.88
2022-12-03T14:11:00.354Z,48.65
2022-12-03T14:13:27.510Z,49.76
2022-12-03T14:15:54.173Z,50.46
2022-12-03T14:18:20.854Z,50.07
2022-12-03T14:20:48.233Z,51.54
2022-12-03T14:23:15.423Z,49.93
2022-12-03T14:25:43.921Z,49.60
2022-12-03T14:28:11.090Z,49.85
2022-12-03T14:30:37.785Z,50.36
2022-12-03T14:33:04.566Z,52.40
2022-12-03T14:35:31.206Z,52.36
2022-12-03T14:37:57.862Z,51.68
2022-12-03T14:40:24.528Z,52.81
2022-12-03T14:42:51.189Z,53.28
2022-12-03T14:45:17.857Z,53.04
2022-12-03T14:47:44.628Z,50.95
2022-12-03T14:50:14.338Z,50.16
2022-12-03T14:52:41.454Z,49.75
2022-12-03T14:55:08.757Z,49.85
2022-12-03T14:57:36.972Z,49.61
2022-12-03T15:00:06.261Z,49.04
2022-12-03T15:02:33.210Z,49.67
2022-12-03T15:04:59.972Z,48.51
2022-12-03T15:07:26.786Z,48.66
2022-12-03T15:09:53.847Z,49.12
2022-12-03T15:12:20.849Z,49.51
2022-12-03T15:14:47.563Z,48.68
2022-12-03T15:17:14.493Z,49.26
2022-12-03T15:19:41.616Z,50.74
2022-12-03T15:22:11.537Z,50.24
2022-12-03T15:24:38.358Z,50.18
2022-12-03T15:27:05.087Z,50.19
2022-12-03T15:29:32.897Z,49.66
2022-12-03T15:32:00.918Z,49.73
2022-12-03T15:34:27.714Z,51.92
2022-12-03T15:36:54.604Z,50.95
2022-12-03T15:39:22.123Z,51.23
2022-12-03T15:41:49.023Z,51.58
2022-12-03T15:44:15.943Z,50.82
2022-12-03T15:46:42.729Z,50.07
2022-12-03T15:49:09.495Z,50.54
2022-12-03T15:51:36.168Z,52.21
2022-12-03T15:54:02.971Z,50.51
2022-12-03T15:56:29.634Z,51.48
2022-12-03T15:58:57.111Z,50.86
2022-12-03T16:01:23.974Z,51.21
2022-12-03T16:03:50.739Z,51.23
2022-12-03T16:06:19.528Z,50.63
2022-12-03T16:08:46.299Z,50.05
2022-12-03T16:11:12.977Z,49.52
2022-12-03T16:13:39.683Z,54.30
2022-12-03T16:16:06.656Z,52.27
2022-12-03T16:18:33.564Z,50.95
2022-12-03T16:21:00.455Z,49.20
2022-12-03T16:23:27.293Z,50.49
2022-12-03T16:25:53.906Z,51.44
2022-12-03T16:28:20.663Z,51.51
2022-12-03T16:30:47.394Z,50.63
2022-12-03T16:33:14.059Z,50.13
2022-12-03T16:35:40.720Z,53.17
2022-12-03T16:38:10.195Z,51.32
2022-12-03T16:40:36.852Z,50.64
2022-12-03T16:43:04.822Z,53.61
2022-12-03T16:46:03.638Z,53.48
2022-12-03T16:48:30.456Z,52.00
2022-12-03T16:50:59.141Z,51.64
2022-12-03T16:53:26.064Z,49.05
2022-12-03T16:55:52.803Z,51.30
2022-12-03T16:58:21.226Z,50.40
2022-12-03T17:00:49.001Z,52.19
2022-12-03T17:03:17.762Z,52.00
2022-12-03T17:05:45.719Z,50.78
2022-12-03T17:08:13.425Z,50.09
2022-12-03T17:10:40.338Z,50.38
2022-12-03T17:13:09.972Z,49.87
2022-12-03T17:15:37.922Z,51.04
2022-12-03T17:18:05.174Z,49.50
2022-12-03T17:20:32.793Z,48.03
2022-12-03T17:22:59.947Z,48.76
2022-12-03T17:25:27.855Z,49.63
2022-12-03T17:27:54.711Z,49.12
2022-12-03T17:30:21.550Z,50.02
2022-12-03T17:32:50.228Z,50.61
2022-12-03T17:35:17.513Z,49.58
2022-12-03T17:37:44.308Z,50.03
2022-12-03T17:40:13.837Z,48.52
2022-12-03T17:42:40.500Z,48.83
2022-12-03T17:45:08.160Z,49.68
2022-12-03T17:47:34.893Z,50.09
2022-12-03T17:50:01.903Z,49.31
2022-12-03T17:52:28.640Z,49.28
2022-12-03T17:55:10.802Z,49.34
2022-12-03T17:57:38.815Z,49.91
2022-12-03T18:00:06.491Z,50.40
2022-12-03T18:02:38.858Z,51.16
2022-12-03T18:05:06.272Z,53.28
2022-12-03T18:07:33.128Z,51.99
2022-12-03T18:10:00.035Z,51.98
2022-12-03T18:12:26.908Z,50.66
2022-12-03T18:14:53.818Z,50.20
2022-12-03T18:17:20.541Z,51.15
2022-12-03T18:19:47.310Z,51.17
2022-12-03T18:22:14.237Z,51.36
2022-12-03T18:24:41.212Z,50.96
2022-12-03T18:27:08.178Z,51.15
2022-12-03T18:29:35.020Z,50.34
2022-12-03T18:32:01.950Z,50.16
2022-12-03T18:34:28.847Z,49.73
2022-12-03T18:36:55.692Z,49.15
2022-12-03T18:39:31.380Z,49.43
2022-12-03T18:41:59.150Z,49.38
2022-12-03T18:44:26.067Z,50.18
2022-12-03T18:46:54.265Z,50.63
2022-12-03T18:49:21.678Z,49.91
2022-12-03T18:51:49.309Z,51.42
2022-12-03T18:54:17.240Z,51.16
2022-12-03T18:56:43.962Z,49.85
2022-12-03T18:59:11.385Z,50.53
2022-12-03T19:01:38.339Z,50.74
2022-12-03T19:04:05.179Z,51.22
2022-12-03T19:06:32.253Z,50.58
2022-12-03T19:08:59.085Z,50.58
2022-12-03T19:11:25.813Z,49.50
2022-12-03T19:13:52.632Z,49.50
2022-12-03T19:16:19.603Z,50.94
2022-12-03T19:18:46.348Z,51.92
2022-12-03T19:21:16.872Z,51.74
2022-12-03T19:24:04.294Z,53.45
2022-12-03T19:26:30.893Z,52.20
2022-12-03T19:28:57.583Z,51.83
2022-12-03T19:31:24.339Z,51.41
2022-12-03T19:33:51.760Z,51.02
2022-12-03T19:36:30.657Z,52.80
2022-12-03T19:38:59.525Z,54.42
2022-12-03T19:41:30.425Z,51.19
2022-12-03T19:43:58.014Z,50.41
2022-12-03T19:46:28.665Z,51.76
2022-12-03T19:48:55.580Z,51.85
2022-12-03T19:51:37.223Z,51.66
2022-12-03T19:54:06.954Z,52.76
2022-12-03T19:56:34.524Z,51.39
2022-12-03T19:59:01.442Z,54.41
2022-12-03T20:01:32.431Z,54.15
2022-12-03T20:04:01.275Z,51.58
2022-12-03T20:06:32.496Z,49.96
2022-12-03T20:09:11.228Z,50.01
2022-12-03T20:11:40.045Z,49.91
2022-12-03T20:14:10.978Z,51.77
2022-12-03T20:16:37.816Z,51.46
2022-12-03T20:19:07.664Z,50.57
2022-12-03T20:21:36.397Z,51.20
2022-12-03T20:24:03.688Z,51.36
2022-12-03T20:26:30.511Z,53.13
2022-12-03T20:28:58.114Z,52.44
2022-12-03T20:31:28.779Z,50.47
2022-12-03T20:33:59.800Z,51.48
2022-12-03T20:36:28.622Z,51.50
2022-12-03T20:38:57.717Z,51.82
2022-12-03T20:41:25.097Z,53.13
2022-12-03T20:43:53.259Z,53.63
2022-12-03T20:46:27.041Z,53.08
2022-12-03T20:48:55.168Z,52.55
2022-12-03T20:51:25.602Z,52.33
2022-12-03T20:53:52.987Z,52.35
2022-12-03T20:56:27.007Z,53.27
2022-12-03T20:58:54.043Z,51.63
2022-12-03T21:01:24.940Z,52.05
2022-12-03T21:03:54.161Z,51.83
2022-12-03T21:06:22.405Z,50.82
2022-12-03T21:08:49.215Z,50.01
2022-12-03T21:11:26.280Z,51.60
2022-12-03T21:13:54.551Z,52.52
2022-12-03T21:16:39.757Z,51.84
2022-12-03T21:19:12.049Z,52.58
2022-12-03T21:21:39.047Z,54.41
2022-12-03T21:24:06.210Z,52.82
2022-12-03T21:26:33.546Z,52.84
2022-12-03T21:29:00.328Z,52.89
2022-12-03T21:31:27.449Z,53.76
2022-12-03T21:33:56.252Z,51.80
2022-12-03T21:36:24.709Z,51.18
2022-12-03T21:38:52.096Z,51.55
2022-12-03T21:41:19.385Z,52.24
2022-12-03T21:43:46.503Z,52.53
2022-12-03T21:47:10.471Z,52.74
2022-12-03T21:49:03.956Z,53.57
2022-12-03T21:51:30.725Z,53.51
2022-12-03T21:53:57.467Z,54.57
2022-12-03T21:56:24.382Z,56.68
2022-12-03T21:58:51.175Z,56.57
2022-12-03T22:01:21.361Z,57.37
2022-12-03T22:03:49.114Z,57.89
2022-12-03T22:06:16.702Z,56.28
2022-12-03T22:08:44.078Z,54.18
2022-12-03T22:11:17.305Z,54.42
2022-12-03T22:13:45.715Z,55.69
2022-12-03T22:16:19.530Z,55.39
2022-12-03T22:18:46.833Z,55.00
2022-12-03T22:21:17.616Z,53.71
2022-12-03T22:23:45.370Z,54.82
2022-12-03T22:26:15.451Z,53.38
2022-12-03T22:28:47.492Z,51.83
2022-12-03T22:31:15.782Z,53.84
2022-12-03T22:33:45.512Z,54.06
2022-12-03T22:36:20.163Z,54.42
2022-12-03T22:38:48.819Z,54.98
2022-12-03T22:41:15.937Z,53.44
2022-12-03T22:43:43.293Z,54.47
2022-12-03T22:46:12.370Z,56.24
2022-12-03T22:48:41.729Z,57.44
2022-12-03T22:51:21.715Z,56.77
2022-12-03T22:53:57.598Z,56.85
2022-12-03T22:56:25.379Z,55.63
2022-12-03T22:58:52.391Z,56.15
2022-12-03T23:01:26.208Z,54.13
2022-12-03T23:03:53.372Z,53.80
2022-12-03T23:06:20.449Z,55.54
2022-12-03T23:08:47.736Z,55.35
2022-12-03T23:11:15.572Z,58.00
2022-12-03T23:13:42.743Z,56.46
2022-12-03T23:16:15.734Z,55.12
2022-12-03T23:18:42.693Z,55.14
2022-12-03T23:21:09.791Z,54.58
2022-12-03T23:23:36.465Z,54.05
2022-12-03T23:26:07.551Z,54.59
2022-12-03T23:28:37.601Z,53.89
2022-12-03T23:31:05.524Z,53.65
2022-12-03T23:33:37.984Z,54.25
2022-12-03T23:36:06.684Z,53.25
2022-12-03T23:38:33.614Z,53.84
2022-12-03T23:41:05.788Z,53.49
2022-12-03T23:43:32.509Z,53.07
2022-12-03T23:46:08.780Z,52.45
2022-12-03T23:48:36.030Z,52.25
2022-12-03T23:51:24.110Z,53.27
2022-12-03T23:53:53.357Z,54.05
2022-12-03T23:56:25.404Z,53.45
2022-12-03T23:58:52.206Z,51.63
